Rousse, Bulgaria

6:37 AM EET on March 25, 2017 (GMT +0200)
kv. Sredna Kula, ul. Indzhe Voivoda 49 | | Change Station

Elev 294 ft 43.81 °N, 25.93 °E | Updated 4 seconds ago

Partly Cloudy
Partly Cloudy
49.5 °F
Feels Like 50 °F
N
2.0
Wind Variable Wind from ENE
Gusts 2.5 mph

Today
High -- | Low -- °F
--% Chance of Precip.
Yesterday
High -- | Low -- °F
Precip. -- in
Pressure 30.15 in
Visibility 6.2 miles
Clouds
Windchill 50 °F
Dew Point 41 °F
Humidity 73%
Rainfall 0.00 in
Snow Depth Not available.
6:10 AM 6:34 PM
Waning Crescent, 11% visible
METAR LBGO 250430Z AUTO 12003KT 040V140 9999 NCD 04/03 Q1021 NOSIG
Pressure 30.15 in
Visibility 6.2 miles
Clouds
Windchill 50 °F
Dew Point 41 °F
Humidity 73%
Rainfall 0.00 in
Snow Depth Not available.
6:10 AM 6:34 PM
Waning Crescent, 11% visible
METAR LBGO 250430Z AUTO 12003KT 040V140 9999 NCD 04/03 Q1021 NOSIG

Get Severe Weather Alerts

Thanks for signing up!

Be on the lookout for a verification email in your inbox.

You'll start receiving the daily forecast at 8 AM.

×

10-Day Weather Forecast

×

Almanac

Astronomy

Mar. 25, 2017 Rise Set
Actual Time
Civil Twilight
Nautical Twilight
Astronomical Twilight
Moon
Length of Visible Light
Length of Day
Tomorrow will be .
, % of the Moon is Illuminated

Today's Extremes

Country Highs Country Lows

Community

WunderPhotos

Upload Photos

1,962,540 photos uploaded!

WunderBlog® & News

Nearby

Air Quality

  Air Quality AQ Index Pollutant
Not available.

Snow Depth

Station Depth Elevation

Earthquake Activity

City Distance Mag. Time & Date
Minimum magnitude displayed is 2.5.

Earthquake Activity

City Distance Mag. Time & Date
Minimum magnitude displayed is 2.5.

Coastal Water Temperatures

Place Temperature

Stations

Nearby Weather Stations

Station Location Temp. Windchill Dew Point Humidity Wind Precip. Elev Updated Type